createdAt,value
2022-09-10T00:00:55.619Z,67.72
2022-09-10T00:03:32.972Z,67.81
2022-09-10T00:06:05.913Z,67.58
2022-09-10T00:08:38.213Z,67.61
2022-09-10T00:11:11.668Z,67.72
2022-09-10T00:13:45.155Z,67.50
2022-09-10T00:16:19.216Z,67.61
2022-09-10T00:18:52.078Z,67.50
2022-09-10T00:21:24.045Z,67.56
2022-09-10T00:23:57.786Z,67.65
2022-09-10T00:26:33.108Z,67.55
2022-09-10T00:29:06.052Z,67.71
2022-09-10T00:31:38.381Z,67.70
2022-09-10T00:34:12.997Z,67.77
2022-09-10T00:36:46.819Z,67.64
2022-09-10T00:39:20.490Z,67.51
2022-09-10T00:41:52.634Z,67.73
2022-09-10T00:44:58.698Z,67.73
2022-09-10T00:47:34.584Z,67.85
2022-09-10T00:50:23.500Z,67.76
2022-09-10T00:52:56.999Z,67.81
2022-09-10T00:55:30.387Z,67.69
2022-09-10T00:58:04.047Z,67.73
2022-09-10T01:00:40.012Z,68.02
2022-09-10T01:03:15.922Z,68.07
2022-09-10T01:05:50.975Z,68.42
2022-09-10T01:08:22.700Z,68.42
2022-09-10T01:11:12.088Z,68.41
2022-09-10T01:14:03.777Z,68.39
2022-09-10T01:16:41.408Z,68.36
2022-09-10T01:19:33.735Z,68.50
2022-09-10T01:22:23.389Z,68.44
2022-09-10T01:25:00.937Z,68.54
2022-09-10T01:27:41.328Z,68.52
2022-09-10T01:30:18.215Z,68.70
2022-09-10T01:33:07.766Z,68.64
2022-09-10T01:35:43.216Z,68.73
2022-09-10T01:38:19.848Z,68.57
2022-09-10T01:40:54.369Z,68.66
2022-09-10T01:43:27.401Z,68.45
2022-09-10T01:46:19.242Z,68.53
2022-09-10T01:49:07.398Z,68.75
2022-09-10T01:51:54.470Z,68.68
2022-09-10T01:54:41.208Z,68.70
2022-09-10T01:57:27.953Z,68.85
2022-09-10T02:00:11.863Z,68.92
2022-09-10T02:02:49.602Z,68.85
2022-09-10T02:05:26.863Z,69.00
2022-09-10T02:08:02.517Z,68.95
2022-09-10T02:10:37.568Z,68.97
2022-09-10T02:13:09.405Z,69.17
2022-09-10T02:15:41.713Z,69.38
2022-09-10T02:18:13.981Z,69.61
2022-09-10T02:20:48.221Z,69.67
2022-09-10T02:23:22.247Z,69.68
2022-09-10T02:25:55.970Z,70.03
2022-09-10T02:28:27.800Z,69.81
2022-09-10T02:31:02.180Z,70.07
2022-09-10T02:33:34.185Z,70.12
2022-09-10T02:36:07.455Z,70.43
2022-09-10T02:38:39.498Z,70.35
2022-09-10T02:41:14.827Z,70.33
2022-09-10T02:43:46.722Z,70.50
2022-09-10T02:46:18.637Z,70.93
2022-09-10T02:48:50.436Z,70.72
2022-09-10T02:51:24.648Z,70.69
2022-09-10T02:53:56.561Z,70.77
2022-09-10T02:56:29.186Z,70.79
2022-09-10T02:59:00.856Z,70.94
2022-09-10T03:01:37.759Z,70.84
2022-09-10T03:04:09.481Z,71.16
2022-09-10T03:06:41.293Z,70.88
2022-09-10T03:09:13.029Z,70.86
2022-09-10T03:11:46.392Z,70.89
2022-09-10T03:14:20.409Z,70.80
2022-09-10T03:16:52.765Z,70.58
2022-09-10T03:19:24.441Z,70.72
2022-09-10T03:21:58.983Z,70.53
2022-09-10T03:24:31.023Z,70.58
2022-09-10T03:27:02.812Z,70.58
2022-09-10T03:29:34.547Z,70.57
2022-09-10T03:32:07.550Z,70.35
2022-09-10T03:34:40.014Z,70.62
2022-09-10T03:37:11.822Z,70.41
2022-09-10T03:39:43.607Z,70.52
2022-09-10T03:42:17.378Z,70.43
2022-09-10T03:44:49.049Z,70.26
2022-09-10T03:47:20.876Z,70.61
2022-09-10T03:49:52.719Z,70.80
2022-09-10T03:52:26.400Z,71.27
2022-09-10T03:54:58.554Z,71.25
2022-09-10T03:57:30.429Z,71.43
2022-09-10T04:00:02.235Z,71.60
2022-09-10T04:02:35.099Z,71.37
2022-09-10T04:05:09.588Z,71.49
2022-09-10T04:07:41.706Z,71.50
2022-09-10T04:10:16.881Z,71.51
2022-09-10T04:12:51.172Z,71.45
2022-09-10T04:15:23.256Z,71.40
2022-09-10T04:17:55.112Z,71.44
2022-09-10T04:20:27.684Z,71.24
2022-09-10T04:23:01.075Z,71.24
2022-09-10T04:25:33.642Z,71.40
2022-09-10T04:28:05.986Z,71.44
2022-09-10T04:30:37.883Z,71.65
2022-09-10T04:33:11.508Z,71.58
2022-09-10T04:35:46.468Z,71.74
2022-09-10T04:38:18.306Z,71.71
2022-09-10T04:40:57.098Z,71.91
2022-09-10T04:43:29.251Z,71.87
2022-09-10T04:46:00.998Z,71.88
2022-09-10T04:48:33.246Z,71.86
2022-09-10T04:51:16.267Z,71.82
2022-09-10T04:53:48.685Z,71.73
2022-09-10T04:56:21.149Z,71.81
2022-09-10T04:58:52.938Z,71.78
2022-09-10T05:01:25.124Z,71.86
2022-09-10T05:03:57.824Z,71.70
2022-09-10T05:06:29.527Z,71.68
2022-09-10T05:09:01.348Z,71.79
2022-09-10T05:11:33.087Z,71.67
2022-09-10T05:14:05.921Z,71.61
2022-09-10T05:16:38.677Z,71.66
2022-09-10T05:19:17.842Z,71.52
2022-09-10T05:21:50.100Z,71.51
2022-09-10T05:24:22.645Z,71.49
2022-09-10T05:26:54.369Z,71.52
2022-09-10T05:29:26.263Z,71.44
2022-09-10T05:31:58.055Z,71.29
2022-09-10T05:34:30.192Z,71.40
2022-09-10T05:37:02.192Z,71.24
2022-09-10T05:39:33.998Z,71.33
2022-09-10T05:42:07.419Z,71.15
2022-09-10T05:44:39.974Z,71.10
2022-09-10T05:47:11.635Z,71.04
2022-09-10T05:49:43.494Z,70.99
2022-09-10T05:52:15.278Z,70.86
2022-09-10T05:54:47.018Z,70.78
2022-09-10T05:57:18.829Z,70.62
2022-09-10T05:59:50.582Z,70.59
2022-09-10T06:02:24.311Z,70.25
2022-09-10T06:04:57.123Z,70.05
2022-09-10T06:07:30.074Z,69.97
2022-09-10T06:10:01.888Z,70.02
2022-09-10T06:12:34.284Z,70.00
2022-09-10T06:15:07.310Z,69.78
2022-09-10T06:17:39.341Z,69.51
2022-09-10T06:20:18.173Z,69.61
2022-09-10T06:22:49.926Z,69.45
2022-09-10T06:25:22.581Z,69.27
2022-09-10T06:27:54.251Z,68.88
2022-09-10T06:30:33.235Z,68.78
2022-09-10T06:33:05.072Z,68.74
2022-09-10T06:35:37.148Z,68.47
2022-09-10T06:38:08.847Z,68.20
2022-09-10T06:40:43.057Z,68.26
2022-09-10T06:43:14.807Z,68.05
2022-09-10T06:45:46.626Z,67.85
2022-09-10T06:48:38.206Z,67.77
2022-09-10T06:51:13.962Z,67.41
2022-09-10T06:53:47.211Z,67.22
2022-09-10T06:56:19.816Z,66.90
2022-09-10T06:58:51.850Z,67.03
2022-09-10T07:01:25.932Z,66.92
2022-09-10T07:03:59.353Z,66.13
2022-09-10T07:06:33.779Z,66.77
2022-09-10T07:09:06.328Z,66.63
2022-09-10T07:11:41.564Z,66.45
2022-09-10T07:14:15.124Z,66.20
2022-09-10T07:16:47.637Z,65.87
2022-09-10T07:19:20.879Z,65.60
2022-09-10T07:21:53.753Z,65.21
2022-09-10T07:24:25.492Z,65.19
2022-09-10T07:26:58.088Z,65.18
2022-09-10T07:29:31.325Z,65.18
2022-09-10T07:32:13.384Z,64.82
2022-09-10T07:34:47.336Z,64.96
2022-09-10T07:37:19.177Z,64.54
2022-09-10T07:39:50.920Z,64.62
2022-09-10T07:42:23.319Z,64.50
2022-09-10T07:44:55.035Z,64.35
2022-09-10T07:47:27.463Z,64.18
2022-09-10T07:49:59.875Z,63.85
2022-09-10T07:52:31.897Z,63.73
2022-09-10T07:55:03.571Z,63.42
2022-09-10T07:57:38.023Z,62.76
2022-09-10T08:00:15.592Z,62.94
2022-09-10T08:02:49.624Z,63.00
2022-09-10T08:05:21.594Z,62.48
2022-09-10T08:07:55.473Z,62.52
2022-09-10T08:10:27.309Z,62.12
2022-09-10T08:12:59.514Z,62.48
2022-09-10T08:15:31.226Z,62.25
2022-09-10T08:18:02.945Z,61.96
2022-09-10T08:20:34.783Z,61.54
2022-09-10T08:23:06.690Z,61.38
2022-09-10T08:25:38.449Z,61.44
2022-09-10T08:28:10.639Z,61.45
2022-09-10T08:30:42.813Z,61.25
2022-09-10T08:33:14.704Z,60.96
2022-09-10T08:35:46.402Z,60.81
2022-09-10T08:38:18.434Z,60.84
2022-09-10T08:40:50.236Z,60.69
2022-09-10T08:43:32.419Z,60.48
2022-09-10T08:46:15.123Z,59.85
2022-09-10T08:48:49.927Z,59.70
2022-09-10T08:51:28.025Z,59.36
2022-09-10T08:54:04.329Z,59.76
2022-09-10T08:56:37.251Z,59.81
2022-09-10T08:59:18.577Z,59.58
2022-09-10T09:01:56.512Z,59.10
2022-09-10T09:04:36.115Z,58.83
2022-09-10T09:07:15.340Z,58.62
2022-09-10T09:09:50.057Z,58.61
2022-09-10T09:12:32.175Z,58.85
2022-09-10T09:15:13.480Z,58.57
2022-09-10T09:17:59.836Z,58.45
2022-09-10T09:20:47.347Z,58.63
2022-09-10T09:23:23.823Z,58.23
2022-09-10T09:26:00.252Z,58.21
2022-09-10T09:28:37.817Z,57.53
2022-09-10T09:31:17.843Z,57.53
2022-09-10T09:33:51.546Z,57.77
2022-09-10T09:36:32.347Z,57.45
2022-09-10T09:39:05.019Z,57.35
2022-09-10T09:41:44.319Z,57.28
2022-09-10T09:44:23.854Z,57.04
2022-09-10T09:46:56.531Z,56.26
2022-09-10T09:49:29.265Z,56.05
2022-09-10T09:52:04.957Z,56.60
2022-09-10T09:57:29.942Z,56.17
2022-09-10T10:00:34.529Z,55.13
2022-09-10T10:03:19.065Z,55.26
2022-09-10T10:05:51.082Z,55.58
2022-09-10T10:08:32.318Z,54.56
2022-09-10T10:11:04.355Z,54.94
2022-09-10T10:13:41.891Z,54.66
2022-09-10T10:16:22.041Z,54.32
2022-09-10T10:18:53.821Z,54.43
2022-09-10T10:21:33.083Z,53.81
2022-09-10T10:24:06.079Z,53.84
2022-09-10T10:26:38.494Z,53.91
2022-09-10T10:29:20.917Z,53.29
2022-09-10T10:31:53.630Z,53.69
2022-09-10T10:34:45.369Z,53.27
2022-09-10T10:37:22.559Z,53.59
2022-09-10T10:43:16.983Z,53.60
2022-09-10T10:45:59.744Z,53.35
2022-09-10T10:48:48.301Z,52.88
2022-09-10T10:51:32.022Z,52.42
2022-09-10T10:54:23.768Z,52.26
2022-09-10T10:57:06.476Z,52.86
2022-09-10T10:59:53.115Z,51.77
2022-09-10T11:02:34.897Z,52.20
2022-09-10T11:05:20.217Z,52.02
2022-09-10T11:07:52.897Z,52.28
2022-09-10T11:10:28.906Z,51.92
2022-09-10T11:13:09.389Z,51.75
2022-09-10T11:15:47.216Z,51.35
2022-09-10T11:18:27.373Z,50.70
2022-09-10T11:21:08.846Z,51.03
2022-09-10T11:23:45.499Z,50.83
2022-09-10T11:26:20.983Z,50.90
2022-09-10T11:29:00.673Z,50.50
2022-09-10T11:31:35.383Z,50.36
2022-09-10T11:34:12.163Z,50.28
2022-09-10T11:36:50.403Z,49.49
2022-09-10T11:39:28.945Z,49.96
2022-09-10T11:42:05.735Z,50.00
2022-09-10T11:44:51.116Z,49.58
2022-09-10T11:47:27.956Z,49.64
2022-09-10T11:50:15.158Z,49.77
2022-09-10T11:52:47.279Z,49.58
2022-09-10T11:55:21.503Z,49.67
2022-09-10T11:58:04.280Z,49.61
2022-09-10T12:00:48.167Z,48.20
2022-09-10T12:03:49.931Z,49.07
2022-09-10T12:06:24.117Z,49.10
2022-09-10T12:09:10.114Z,49.59
2022-09-10T12:11:53.362Z,49.47
2022-09-10T12:14:25.452Z,50.00
2022-09-10T12:17:03.445Z,49.80
2022-09-10T12:19:38.613Z,49.76
2022-09-10T12:22:21.156Z,50.03
2022-09-10T12:25:03.220Z,50.27
2022-09-10T12:27:49.132Z,50.14
2022-09-10T12:31:00.861Z,49.99
2022-09-10T12:33:59.466Z,49.44
2022-09-10T12:37:19.904Z,50.11
2022-09-10T12:40:32.944Z,49.97
2022-09-10T12:43:44.739Z,50.67
2022-09-10T12:46:25.824Z,50.65
2022-09-10T12:49:14.135Z,50.67
2022-09-10T12:52:00.138Z,49.91
2022-09-10T12:54:47.083Z,50.05
2022-09-10T12:57:31.179Z,50.17
2022-09-10T13:00:22.103Z,49.43
2022-09-10T13:02:58.374Z,49.92
2022-09-10T13:05:36.707Z,49.98
2022-09-10T13:08:18.748Z,49.32
2022-09-10T13:11:07.430Z,49.79
2022-09-10T13:13:44.791Z,50.27
2022-09-10T13:16:21.188Z,49.67
2022-09-10T13:18:56.904Z,49.63
2022-09-10T13:21:53.995Z,49.45
2022-09-10T13:24:53.559Z,49.17
2022-09-10T13:27:39.067Z,50.02
2022-09-10T13:30:24.150Z,49.47
2022-09-10T13:32:59.162Z,49.23
2022-09-10T13:36:06.358Z,48.70
2022-09-10T13:39:15.912Z,49.05
2022-09-10T13:42:08.954Z,49.19
2022-09-10T13:44:56.972Z,49.50
2022-09-10T13:47:35.660Z,50.00
2022-09-10T13:50:19.214Z,50.41
2022-09-10T13:52:55.048Z,50.42
2022-09-10T13:55:29.843Z,50.95
2022-09-10T13:58:09.402Z,50.98
2022-09-10T14:00:50.048Z,51.57
2022-09-10T14:03:26.013Z,51.92
2022-09-10T14:06:00.370Z,52.03
2022-09-10T14:08:35.788Z,52.20
2022-09-10T14:11:20.974Z,52.39
2022-09-10T14:13:56.276Z,52.77
2022-09-10T14:16:32.948Z,52.52
2022-09-10T14:19:08.781Z,52.90
2022-09-10T14:21:40.661Z,53.18
2022-09-10T14:24:30.848Z,53.21
2022-09-10T14:27:16.666Z,53.44
2022-09-10T14:29:49.386Z,53.54
2022-09-10T14:32:29.554Z,53.53
2022-09-10T14:35:23.043Z,53.32
2022-09-10T14:37:54.976Z,53.43
2022-09-10T14:40:40.975Z,53.49
2022-09-10T14:43:29.898Z,53.53
2022-09-10T14:46:02.968Z,53.53
2022-09-10T14:48:37.573Z,53.76
2022-09-10T14:51:18.259Z,53.48
2022-09-10T14:53:55.428Z,53.87
2022-09-10T14:56:31.510Z,53.87
2022-09-10T14:59:11.792Z,53.89
2022-09-10T15:01:46.319Z,54.12
2022-09-10T15:04:23.046Z,54.72
2022-09-10T15:06:56.259Z,54.98
2022-09-10T15:09:29.293Z,55.84
2022-09-10T15:12:06.001Z,56.11
2022-09-10T15:14:39.020Z,56.49
2022-09-10T15:17:17.692Z,56.24
2022-09-10T15:19:50.024Z,56.47
2022-09-10T15:22:31.682Z,56.39
2022-09-10T15:25:11.691Z,56.23
2022-09-10T15:27:43.820Z,56.22
2022-09-10T15:30:16.927Z,56.39
2022-09-10T15:32:48.692Z,56.46
2022-09-10T15:35:20.485Z,56.50
2022-09-10T15:37:52.358Z,56.28
2022-09-10T15:40:24.197Z,56.51
2022-09-10T15:42:55.989Z,56.36
2022-09-10T15:45:27.831Z,56.52
2022-09-10T15:47:59.573Z,56.63
2022-09-10T15:50:32.789Z,56.65
2022-09-10T15:53:12.116Z,56.90
2022-09-10T15:55:44.188Z,57.01
2022-09-10T15:58:15.996Z,57.07
2022-09-10T16:00:47.677Z,57.10
2022-09-10T16:03:22.265Z,57.72
2022-09-10T16:05:55.120Z,57.89
2022-09-10T16:08:26.844Z,58.17
2022-09-10T16:10:59.116Z,58.17
2022-09-10T16:13:31.952Z,58.63
2022-09-10T16:16:06.271Z,58.92
2022-09-10T16:18:38.731Z,59.22
2022-09-10T16:21:12.762Z,60.47
2022-09-10T16:23:46.385Z,60.81
2022-09-10T16:26:21.615Z,61.26
2022-09-10T16:28:54.229Z,61.83
2022-09-10T16:31:27.871Z,62.56
2022-09-10T16:34:02.641Z,63.60
2022-09-10T16:36:37.007Z,64.02
2022-09-10T16:39:12.538Z,64.49
2022-09-10T16:41:45.906Z,63.85
2022-09-10T16:44:19.292Z,64.21
2022-09-10T16:46:51.145Z,64.33
2022-09-10T16:49:23.487Z,64.15
2022-09-10T16:51:55.420Z,64.77
2022-09-10T16:54:27.404Z,64.62
2022-09-10T16:56:59.323Z,65.46
2022-09-10T16:59:31.072Z,65.97
2022-09-10T17:02:02.821Z,65.77
2022-09-10T17:04:35.022Z,66.35
2022-09-10T17:07:07.030Z,66.18
2022-09-10T17:09:38.823Z,67.71
2022-09-10T17:12:12.164Z,66.31
2022-09-10T17:14:43.853Z,66.77
2022-09-10T17:17:15.621Z,66.96
2022-09-10T17:19:47.407Z,67.08
2022-09-10T17:22:19.167Z,67.55
2022-09-10T17:24:51.128Z,68.10
2022-09-10T17:27:25.546Z,67.99
2022-09-10T17:29:57.512Z,67.22
2022-09-10T17:32:29.294Z,67.32
2022-09-10T17:35:02.092Z,67.23
2022-09-10T17:37:33.822Z,67.11
2022-09-10T17:40:16.945Z,67.20
2022-09-10T17:42:50.682Z,67.13
2022-09-10T17:45:22.667Z,67.13
2022-09-10T17:47:54.595Z,67.09
2022-09-10T17:50:30.945Z,67.11
2022-09-10T17:53:03.138Z,66.96
2022-09-10T17:55:36.955Z,67.22
2022-09-10T17:58:08.763Z,67.16
2022-09-10T18:00:43.793Z,67.01
2022-09-10T18:03:16.495Z,66.98
2022-09-10T18:05:48.327Z,68.57
2022-09-10T18:08:20.346Z,69.38
2022-09-10T18:11:01.087Z,68.95
2022-09-10T18:13:33.354Z,68.73
2022-09-10T18:16:09.436Z,68.26
2022-09-10T18:18:41.766Z,68.55
2022-09-10T18:21:19.678Z,68.26
2022-09-10T18:23:55.059Z,68.43
2022-09-10T18:26:28.821Z,68.26
2022-09-10T18:29:02.971Z,68.15
2022-09-10T18:31:37.372Z,68.33
2022-09-10T18:34:12.964Z,67.93
2022-09-10T18:36:45.231Z,67.84
2022-09-10T18:39:17.343Z,68.75
2022-09-10T18:41:50.270Z,68.83
2022-09-10T18:44:24.103Z,69.25
2022-09-10T18:46:56.228Z,70.16
2022-09-10T18:49:28.528Z,69.98
2022-09-10T18:52:00.464Z,70.56
2022-09-10T18:54:32.865Z,69.87
2022-09-10T18:57:04.831Z,69.77
2022-09-10T18:59:38.482Z,69.82
2022-09-10T19:02:13.569Z,70.14
2022-09-10T19:05:09.765Z,69.75
2022-09-10T19:07:37.530Z,70.66
2022-09-10T19:10:10.460Z,70.57
2022-09-10T19:12:42.328Z,70.74
2022-09-10T19:15:15.095Z,71.68
2022-09-10T19:17:46.938Z,71.19
2022-09-10T19:20:19.345Z,71.27
2022-09-10T19:22:52.524Z,71.27
2022-09-10T19:25:24.365Z,71.22
2022-09-10T19:27:56.258Z,70.81
2022-09-10T19:30:30.630Z,70.78
2022-09-10T19:33:05.948Z,70.86
2022-09-10T19:35:38.317Z,70.59
2022-09-10T19:38:34.006Z,70.90
2022-09-10T19:41:07.941Z,70.85
2022-09-10T19:43:40.421Z,70.85
2022-09-10T19:46:12.917Z,71.13
2022-09-10T19:48:45.417Z,71.12
2022-09-10T19:51:20.372Z,70.89
2022-09-10T19:53:52.392Z,71.14
2022-09-10T19:56:25.762Z,71.13
2022-09-10T19:58:58.788Z,72.07
2022-09-10T20:01:32.354Z,72.37
2022-09-10T20:04:06.319Z,73.02
2022-09-10T20:06:39.448Z,74.01
2022-09-10T20:09:12.126Z,73.58
2022-09-10T20:11:44.006Z,73.12
2022-09-10T20:14:17.538Z,73.22
2022-09-10T20:16:49.433Z,72.71
2022-09-10T20:19:22.196Z,72.72
2022-09-10T20:21:54.144Z,72.51
2022-09-10T20:24:28.755Z,72.57
2022-09-10T20:27:00.513Z,72.30
2022-09-10T20:29:32.974Z,72.30
2022-09-10T20:32:04.805Z,72.19
2022-09-10T20:34:37.697Z,72.09
2022-09-10T20:37:09.393Z,72.22
2022-09-10T20:39:42.819Z,72.11
2022-09-10T20:42:14.730Z,72.05
2022-09-10T20:44:47.064Z,71.95
2022-09-10T20:47:18.769Z,71.99
2022-09-10T20:49:50.525Z,71.91
2022-09-10T20:52:23.496Z,71.90
2022-09-10T20:54:55.577Z,71.66
2022-09-10T20:57:30.258Z,71.85
2022-09-10T21:00:02.289Z,71.88
2022-09-10T21:02:34.229Z,71.99
2022-09-10T21:05:07.472Z,71.99
2022-09-10T21:07:39.127Z,72.10
2022-09-10T21:10:15.593Z,71.98
2022-09-10T21:12:47.268Z,71.81
2022-09-10T21:15:19.371Z,72.28
2022-09-10T21:17:51.463Z,72.36
2022-09-10T21:20:25.190Z,72.38
2022-09-10T21:22:56.923Z,72.60
2022-09-10T21:25:29.320Z,72.50
2022-09-10T21:28:01.538Z,72.50
2022-09-10T21:30:35.624Z,72.30
2022-09-10T21:33:07.393Z,72.38
2022-09-10T21:35:39.254Z,72.15
2022-09-10T21:38:11.858Z,72.52
2022-09-10T21:40:44.587Z,72.63
2022-09-10T21:43:16.499Z,72.43
2022-09-10T21:45:49.927Z,72.44
2022-09-10T21:48:22.124Z,72.32
2022-09-10T21:51:02.798Z,72.28
2022-09-10T21:53:35.561Z,72.37
2022-09-10T21:56:08.726Z,72.19
2022-09-10T21:58:41.365Z,72.17
2022-09-10T22:01:17.383Z,71.97
2022-09-10T22:03:50.297Z,71.74
2022-09-10T22:06:23.735Z,71.68
2022-09-10T22:08:58.767Z,71.61
2022-09-10T22:11:33.711Z,71.76
2022-09-10T22:14:07.137Z,72.10
2022-09-10T22:16:38.967Z,72.31
2022-09-10T22:19:14.267Z,72.30
2022-09-10T22:21:47.851Z,72.08
2022-09-10T22:24:19.645Z,72.22
2022-09-10T22:26:51.411Z,72.27
2022-09-10T22:29:23.453Z,72.24
2022-09-10T22:31:56.426Z,72.40
2022-09-10T22:34:28.894Z,72.06
2022-09-10T22:37:03.595Z,72.16
2022-09-10T22:39:37.240Z,71.81
2022-09-10T22:42:11.687Z,71.77
2022-09-10T22:44:43.402Z,72.01
2022-09-10T22:47:15.441Z,72.15
2022-09-10T22:49:47.641Z,72.30
2022-09-10T22:52:21.031Z,72.54
2022-09-10T22:54:52.716Z,72.57
2022-09-10T22:57:24.537Z,72.43
2022-09-10T22:59:56.497Z,72.51
2022-09-10T23:02:29.361Z,72.65
2022-09-10T23:05:01.257Z,72.54
2022-09-10T23:07:34.046Z,72.69
2022-09-10T23:10:09.632Z,72.72
2022-09-10T23:12:42.189Z,72.74
2022-09-10T23:15:15.870Z,72.54
2022-09-10T23:17:47.921Z,72.71
2022-09-10T23:20:20.139Z,72.64
2022-09-10T23:22:53.813Z,72.82
2022-09-10T23:25:25.634Z,72.96
2022-09-10T23:27:57.367Z,73.04
2022-09-10T23:30:29.670Z,72.99
2022-09-10T23:33:01.412Z,73.17
2022-09-10T23:35:33.092Z,73.12
2022-09-10T23:38:04.890Z,73.10
2022-09-10T23:40:36.587Z,73.07
2022-09-10T23:43:09.928Z,72.91
2022-09-10T23:45:41.836Z,72.86
2022-09-10T23:48:13.589Z,72.79
2022-09-10T23:50:46.112Z,72.93
2022-09-10T23:53:18.846Z,73.06
2022-09-10T23:55:50.867Z,73.22
2022-09-10T23:58:22.672Z,73.25
